createdAt,value
2023-07-24T00:00:25.970Z,5.80
2023-07-24T00:03:30.507Z,6.22
2023-07-24T00:06:35.051Z,6.20
2023-07-24T00:09:39.913Z,6.07
2023-07-24T00:15:48.911Z,6.32
2023-07-24T00:18:53.410Z,6.75
2023-07-24T00:21:58.564Z,6.53
2023-07-24T00:28:14.349Z,6.00
2023-07-24T00:31:18.929Z,6.55
2023-07-24T00:34:23.549Z,6.38
2023-07-24T00:37:28.345Z,6.28
2023-07-24T00:40:32.796Z,6.68
2023-07-24T00:43:37.598Z,7.13
2023-07-24T00:46:42.933Z,6.97
2023-07-24T00:49:49.782Z,8.68
2023-07-24T00:52:54.442Z,6.32
2023-07-24T00:55:59.129Z,7.40
2023-07-24T00:59:07.666Z,5.65
2023-07-24T01:02:14.256Z,5.97
2023-07-24T01:05:19.897Z,6.03
2023-07-24T01:08:25.018Z,5.85
2023-07-24T01:11:38.572Z,9.02
2023-07-24T01:14:52.368Z,7.03
2023-07-24T01:18:07.860Z,5.57
2023-07-24T01:21:14.461Z,5.95
2023-07-24T01:24:36.179Z,7.22
2023-07-24T01:27:46.442Z,7.22
2023-07-24T01:30:51.031Z,6.13
2023-07-24T01:33:59.320Z,6.90
2023-07-24T01:37:04.545Z,7.68
2023-07-24T01:40:16.524Z,6.43
2023-07-24T01:43:21.024Z,6.20
2023-07-24T01:46:25.594Z,5.70
2023-07-24T01:52:35.173Z,5.20
2023-07-24T01:55:39.924Z,6.07
2023-07-24T01:58:44.390Z,5.50
2023-07-24T02:01:49.091Z,5.40
2023-07-24T02:04:53.144Z,4.65
2023-07-24T02:07:57.780Z,5.22
2023-07-24T02:11:09.829Z,5.07
2023-07-24T02:14:18.888Z,4.90
2023-07-24T02:55:40.343Z,3.85
2023-07-24T02:58:44.933Z,3.88
2023-07-24T03:01:49.622Z,3.90
2023-07-24T03:07:58.198Z,4.18
2023-07-24T03:11:04.286Z,3.45
2023-07-24T03:14:09.570Z,3.70
2023-07-24T03:17:16.386Z,3.22
2023-07-24T03:20:29.950Z,3.20
2023-07-24T03:23:34.824Z,3.13
2023-07-24T03:26:39.414Z,3.78
2023-07-24T03:29:43.972Z,2.97
2023-07-24T03:32:48.168Z,3.40
2023-07-24T03:35:52.993Z,4.72
2023-07-24T03:38:58.034Z,3.25
2023-07-24T03:42:04.111Z,3.38
2023-07-24T03:45:09.643Z,3.65
2023-07-24T03:48:20.104Z,2.85
2023-07-24T03:51:24.740Z,3.17
2023-07-24T03:57:33.153Z,3.67
2023-07-24T04:00:37.697Z,2.70
2023-07-24T04:03:42.390Z,3.42
2023-07-24T04:06:49.680Z,3.53
2023-07-24T04:09:54.414Z,3.40
2023-07-24T04:12:59.288Z,3.00
2023-07-24T04:16:04.269Z,3.25
2023-07-24T04:19:09.105Z,3.30
2023-07-24T04:22:13.648Z,3.42
2023-07-24T04:25:18.534Z,3.10
2023-07-24T04:28:23.167Z,3.38
2023-07-24T04:31:27.797Z,3.53
2023-07-24T04:34:32.515Z,3.20
2023-07-24T04:37:37.396Z,3.47
2023-07-24T04:40:42.094Z,3.53
2023-07-24T04:46:50.981Z,2.92
2023-07-24T04:53:01.530Z,2.67
2023-07-24T04:56:06.174Z,2.20
2023-07-24T04:59:11.205Z,2.63
2023-07-24T05:02:16.094Z,2.58
2023-07-24T05:05:20.654Z,2.63
2023-07-24T05:11:29.782Z,2.40
2023-07-24T05:17:38.436Z,1.90
2023-07-24T05:20:50.682Z,1.92
2023-07-24T05:23:55.393Z,2.03
2023-07-24T05:30:04.906Z,1.90
2023-07-24T05:33:10.503Z,1.90
2023-07-24T05:36:15.139Z,1.75
2023-07-24T05:42:23.980Z,2.20
2023-07-24T05:45:29.743Z,2.38
2023-07-24T05:48:34.400Z,2.33
2023-07-24T05:51:38.989Z,3.25
2023-07-24T05:54:43.528Z,2.97
2023-07-24T05:57:48.143Z,3.40
2023-07-24T06:00:52.990Z,2.95
2023-07-24T06:07:01.426Z,3.63
2023-07-24T06:10:06.088Z,2.72
2023-07-24T06:13:10.680Z,2.60
2023-07-24T06:16:15.933Z,3.25
2023-07-24T06:19:20.891Z,2.92
2023-07-24T06:22:25.835Z,3.17
2023-07-24T06:25:30.537Z,6.90
2023-07-24T06:28:36.240Z,4.30
2023-07-24T06:31:40.891Z,4.90
2023-07-24T06:34:56.992Z,5.85
2023-07-24T06:38:01.530Z,3.00
2023-07-24T06:44:13.104Z,3.75
2023-07-24T06:47:17.869Z,4.68
2023-07-24T06:50:22.789Z,2.55
2023-07-24T06:53:27.290Z,2.28
2023-07-24T06:56:31.655Z,5.72
2023-07-24T06:59:36.150Z,5.57
2023-07-24T07:02:41.096Z,2.97
2023-07-24T07:05:45.562Z,5.30
2023-07-24T07:08:50.101Z,7.60
2023-07-24T07:11:54.645Z,6.78
2023-07-24T07:14:59.142Z,3.72
2023-07-24T07:18:03.588Z,6.80
2023-07-24T07:21:08.041Z,4.38
2023-07-24T07:24:12.863Z,3.00
2023-07-24T07:27:19.243Z,5.28
2023-07-24T07:30:24.042Z,1.67
2023-07-24T07:33:28.841Z,2.40
2023-07-24T07:39:38.365Z,2.60
2023-07-24T07:42:44.833Z,2.05
2023-07-24T07:45:50.318Z,3.67
2023-07-24T07:48:54.736Z,2.70
2023-07-24T07:51:59.251Z,4.78
2023-07-24T07:55:04.630Z,2.22
2023-07-24T07:58:09.139Z,2.50
2023-07-24T08:01:13.784Z,4.20
2023-07-24T08:04:19.779Z,4.05
2023-07-24T08:07:24.649Z,2.28
2023-07-24T08:10:29.692Z,5.78
2023-07-24T08:13:34.964Z,3.85
2023-07-24T08:16:42.565Z,3.33
2023-07-24T08:19:47.136Z,3.95
2023-07-24T08:22:51.661Z,1.48
2023-07-24T08:25:58.881Z,1.83
2023-07-24T08:29:03.435Z,1.73
2023-07-24T08:32:08.102Z,3.90
2023-07-24T08:38:16.846Z,5.45
2023-07-24T08:41:21.367Z,2.40
2023-07-24T08:44:27.565Z,2.45
2023-07-24T08:47:32.518Z,3.80
2023-07-24T08:50:38.166Z,2.30
2023-07-24T08:53:45.158Z,2.30
2023-07-24T08:56:52.209Z,4.70
2023-07-24T08:59:56.930Z,2.80
2023-07-24T09:06:09.633Z,2.10
2023-07-24T09:09:17.899Z,3.00
2023-07-24T09:12:25.871Z,5.03
2023-07-24T09:15:30.426Z,5.47
2023-07-24T09:18:42.972Z,5.10
2023-07-24T09:21:47.824Z,3.00
2023-07-24T09:27:59.629Z,2.95
2023-07-24T09:31:16.334Z,2.00
2023-07-24T09:34:21.310Z,3.35
2023-07-24T09:37:31.750Z,5.53
2023-07-24T09:40:49.065Z,2.85
2023-07-24T09:44:01.072Z,5.45
2023-07-24T09:47:28.896Z,4.40
2023-07-24T09:50:30.582Z,2.87
2023-07-24T09:56:50.588Z,3.78
2023-07-24T10:00:00.743Z,2.85
2023-07-24T10:03:12.207Z,7.22
2023-07-24T10:06:18.160Z,2.80
2023-07-24T10:09:28.993Z,6.05
2023-07-24T10:12:36.149Z,3.53
2023-07-24T10:15:42.071Z,3.88
2023-07-24T10:18:48.853Z,3.15
2023-07-24T10:21:54.540Z,3.67
2023-07-24T10:24:59.302Z,8.20
2023-07-24T10:31:22.632Z,6.07
2023-07-24T10:34:38.072Z,3.30
2023-07-24T10:37:42.787Z,4.75
2023-07-24T10:43:54.782Z,5.05
2023-07-24T10:46:59.626Z,3.15
2023-07-24T10:53:10.669Z,3.55
2023-07-24T10:56:16.126Z,4.93
2023-07-24T10:59:20.700Z,3.75
2023-07-24T11:02:26.071Z,10.40
2023-07-24T11:05:30.677Z,6.47
2023-07-24T11:08:38.211Z,5.78
2023-07-24T11:11:43.081Z,4.72
2023-07-24T11:15:02.718Z,3.35
2023-07-24T11:19:10.380Z,4.60
2023-07-24T11:22:41.617Z,3.00
2023-07-24T11:25:47.488Z,4.20
2023-07-24T11:28:58.102Z,2.88
2023-07-24T11:32:09.334Z,5.32
2023-07-24T11:35:16.755Z,8.38
2023-07-24T11:38:24.462Z,5.10
2023-07-24T11:41:39.644Z,5.18
2023-07-24T11:44:46.408Z,3.10
2023-07-24T11:47:57.593Z,2.72
2023-07-24T11:51:02.315Z,5.22
2023-07-24T11:54:09.311Z,2.95
2023-07-24T11:57:27.556Z,4.25
2023-07-24T12:00:37.597Z,3.83
2023-07-24T12:03:43.797Z,4.75
2023-07-24T12:06:48.656Z,3.10
2023-07-24T12:09:56.392Z,3.92
2023-07-24T12:13:06.632Z,2.90
2023-07-24T12:16:11.140Z,5.30
2023-07-24T12:19:28.959Z,4.72
2023-07-24T12:22:36.735Z,3.72
2023-07-24T12:25:40.852Z,2.35
2023-07-24T12:28:48.297Z,2.65
2023-07-24T12:31:52.458Z,2.65
2023-07-24T12:34:59.838Z,2.70
2023-07-24T12:38:13.457Z,2.95
2023-07-24T12:41:18.157Z,2.70
2023-07-24T12:44:22.535Z,2.60
2023-07-24T12:47:29.035Z,2.40
2023-07-24T12:50:36.008Z,2.90
2023-07-24T12:53:46.782Z,2.88
2023-07-24T12:56:58.787Z,2.60
2023-07-24T13:00:03.553Z,2.42
2023-07-24T13:03:11.005Z,2.88
2023-07-24T13:06:15.778Z,3.13
2023-07-24T13:09:22.156Z,2.75
2023-07-24T13:12:26.863Z,3.50
2023-07-24T13:15:33.697Z,3.05
2023-07-24T13:18:38.300Z,2.70
2023-07-24T13:21:45.690Z,2.80
2023-07-24T13:24:50.404Z,3.15
2023-07-24T13:27:55.093Z,2.70
2023-07-24T13:30:59.809Z,3.20
2023-07-24T13:34:05.340Z,3.13
2023-07-24T13:37:15.805Z,3.13
2023-07-24T13:40:20.675Z,3.03
2023-07-24T13:43:25.275Z,3.50
2023-07-24T13:46:29.845Z,3.05
2023-07-24T13:49:35.553Z,3.70
2023-07-24T13:52:40.321Z,3.30
2023-07-24T13:55:44.430Z,3.75
2023-07-24T13:58:49.311Z,3.05
2023-07-24T14:01:54.127Z,3.38
2023-07-24T14:05:00.409Z,2.60
2023-07-24T14:08:10.373Z,3.08
2023-07-24T14:11:15.701Z,3.08
2023-07-24T14:14:21.319Z,2.97
2023-07-24T14:17:26.239Z,2.90
2023-07-24T14:20:31.439Z,2.80
2023-07-24T14:23:35.925Z,2.78
2023-07-24T14:26:40.617Z,3.60
2023-07-24T14:29:45.229Z,2.55
2023-07-24T14:32:51.449Z,2.63
2023-07-24T14:35:58.717Z,2.40
2023-07-24T14:39:29.438Z,4.03
2023-07-24T14:42:34.303Z,3.20
2023-07-24T14:48:43.762Z,2.58
2023-07-24T14:51:48.449Z,2.42
2023-07-24T14:54:53.010Z,2.70
2023-07-24T14:57:58.076Z,2.60
2023-07-24T15:04:06.770Z,2.80
2023-07-24T15:07:11.254Z,2.72
2023-07-24T15:10:15.907Z,2.95
2023-07-24T15:13:20.457Z,2.60
2023-07-24T15:16:25.251Z,2.53
2023-07-24T15:19:29.926Z,2.50
2023-07-24T15:22:34.604Z,2.45
2023-07-24T15:25:39.227Z,2.70
2023-07-24T15:28:45.650Z,2.63
2023-07-24T15:31:50.194Z,2.67
2023-07-24T15:34:56.917Z,2.67
2023-07-24T15:38:06.359Z,2.70
2023-07-24T15:41:14.104Z,2.72
2023-07-24T15:44:20.686Z,2.92
2023-07-24T15:47:28.034Z,2.88
2023-07-24T15:50:36.715Z,2.90
2023-07-24T15:53:41.314Z,2.92
2023-07-24T15:56:46.013Z,3.25
2023-07-24T15:59:53.102Z,2.95
2023-07-24T16:02:59.107Z,3.00
2023-07-24T16:06:03.701Z,2.88
2023-07-24T16:09:11.307Z,2.60
2023-07-24T16:12:18.936Z,2.70
2023-07-24T16:18:40.359Z,3.20
2023-07-24T16:21:48.485Z,2.83
2023-07-24T16:25:00.168Z,2.80
2023-07-24T16:28:10.171Z,2.88
2023-07-24T16:31:16.522Z,2.70
2023-07-24T16:37:30.503Z,2.65
2023-07-24T16:40:35.246Z,2.90
2023-07-24T16:43:39.781Z,3.17
2023-07-24T16:46:44.611Z,2.75
2023-07-24T16:49:49.096Z,3.22
2023-07-24T16:52:53.666Z,3.47
2023-07-24T16:55:58.299Z,3.08
2023-07-24T16:59:03.020Z,3.17
2023-07-24T17:02:07.896Z,3.10
2023-07-24T17:05:12.664Z,3.10
2023-07-24T17:08:17.468Z,2.65
2023-07-24T17:11:22.029Z,2.92
2023-07-24T17:14:26.429Z,3.47
2023-07-24T17:17:30.973Z,4.13
2023-07-24T17:20:35.594Z,3.03
2023-07-24T17:23:40.346Z,2.78
2023-07-24T17:26:44.965Z,2.92
2023-07-24T17:29:52.742Z,2.83
2023-07-24T17:32:59.421Z,3.22
2023-07-24T17:36:04.094Z,3.25
2023-07-24T17:39:08.815Z,3.13
2023-07-24T17:42:22.615Z,3.30
2023-07-24T17:45:27.163Z,3.13
2023-07-24T17:48:31.858Z,3.15
2023-07-24T17:51:36.478Z,2.85
2023-07-24T17:57:51.369Z,3.17
2023-07-24T18:00:55.877Z,3.67
2023-07-24T18:04:01.358Z,3.20
2023-07-24T18:07:06.261Z,3.30
2023-07-24T18:10:11.525Z,3.20
2023-07-24T18:13:16.687Z,3.70
2023-07-24T18:16:21.456Z,3.30
2023-07-24T18:22:30.753Z,3.15
2023-07-24T18:28:39.549Z,3.33
2023-07-24T18:31:44.216Z,3.38
2023-07-24T18:34:48.925Z,3.30
2023-07-24T18:37:53.738Z,3.60
2023-07-24T18:41:01.432Z,3.67
2023-07-24T18:44:06.990Z,3.58
2023-07-24T18:47:12.405Z,3.72
2023-07-24T18:50:17.016Z,3.85
2023-07-24T18:56:29.936Z,3.50
2023-07-24T18:59:34.547Z,4.07
2023-07-24T19:02:39.652Z,3.72
2023-07-24T19:05:44.366Z,3.53
2023-07-24T19:08:52.062Z,4.18
2023-07-24T19:11:57.748Z,3.55
2023-07-24T19:15:02.305Z,3.80
2023-07-24T19:18:09.937Z,3.83
2023-07-24T19:21:14.616Z,3.78
2023-07-24T19:24:19.330Z,4.10
2023-07-24T19:27:24.611Z,4.30
2023-07-24T19:30:29.349Z,4.28
2023-07-24T19:33:34.124Z,3.95
2023-07-24T19:36:39.458Z,3.72
2023-07-24T19:39:43.843Z,4.60
2023-07-24T19:42:48.837Z,4.10
2023-07-24T19:45:54.393Z,4.03
2023-07-24T19:49:01.339Z,4.70
2023-07-24T19:52:06.901Z,4.13
2023-07-24T19:58:31.227Z,5.70
2023-07-24T20:01:39.104Z,5.38
2023-07-24T20:04:43.470Z,4.53
2023-07-24T20:07:48.301Z,4.60
2023-07-24T20:10:54.561Z,4.60
2023-07-24T20:13:59.572Z,5.47
2023-07-24T20:17:04.242Z,5.32
2023-07-24T20:23:14.816Z,4.97
2023-07-24T20:26:20.341Z,5.22
2023-07-24T20:29:25.380Z,5.40
2023-07-24T20:32:31.496Z,5.72
2023-07-24T20:35:36.528Z,5.85
2023-07-24T20:41:46.985Z,4.57
2023-07-24T20:44:55.005Z,4.93
2023-07-24T20:48:00.568Z,4.70
2023-07-24T20:51:05.075Z,4.60
2023-07-24T20:54:10.099Z,6.38
2023-07-24T20:57:14.454Z,4.95
2023-07-24T21:00:19.232Z,4.10
2023-07-24T21:03:24.135Z,4.70
2023-07-24T21:06:29.062Z,4.35
2023-07-24T21:12:41.375Z,4.93
2023-07-24T21:15:45.827Z,5.00
2023-07-24T21:18:53.843Z,4.70
2023-07-24T21:21:58.203Z,4.70
2023-07-24T21:25:02.716Z,4.32
2023-07-24T21:28:08.386Z,4.53
2023-07-24T21:31:14.608Z,4.38
2023-07-24T21:34:20.079Z,4.63
2023-07-24T21:37:24.779Z,4.88
2023-07-24T21:40:29.778Z,4.60
2023-07-24T21:43:34.486Z,4.45
2023-07-24T21:46:39.752Z,4.55
2023-07-24T21:49:44.218Z,4.00
2023-07-24T21:52:51.815Z,4.30
2023-07-24T21:55:56.932Z,5.20
2023-07-24T21:59:01.584Z,4.25
2023-07-24T22:02:06.575Z,4.88
2023-07-24T22:08:15.091Z,4.28
2023-07-24T22:11:19.685Z,4.27
2023-07-24T22:14:24.306Z,4.78
2023-07-24T22:17:29.821Z,5.45
2023-07-24T22:20:40.864Z,4.07
2023-07-24T22:23:49.004Z,4.47
2023-07-24T22:26:53.472Z,4.28
2023-07-24T22:29:57.913Z,4.00
2023-07-24T22:33:06.841Z,3.30
2023-07-24T22:36:11.833Z,2.72
2023-07-24T22:39:17.453Z,3.08
2023-07-24T22:42:22.390Z,3.60
2023-07-24T22:48:31.652Z,2.65
2023-07-24T22:51:36.606Z,3.08
2023-07-24T22:57:45.995Z,2.85
2023-07-24T23:03:54.486Z,2.78
2023-07-24T23:06:59.244Z,2.50
2023-07-24T23:10:03.993Z,2.70
2023-07-24T23:13:08.970Z,2.35
2023-07-24T23:16:15.114Z,2.35
2023-07-24T23:19:19.112Z,2.70
2023-07-24T23:22:23.860Z,2.10
2023-07-24T23:25:28.377Z,2.22
2023-07-24T23:28:33.330Z,2.38
2023-07-24T23:31:38.041Z,2.60
2023-07-24T23:34:42.504Z,2.65
2023-07-24T23:37:47.090Z,2.40
2023-07-24T23:41:01.306Z,2.55
2023-07-24T23:44:06.290Z,2.70
2023-07-24T23:47:11.093Z,2.40
2023-07-24T23:50:16.565Z,2.65
2023-07-24T23:53:21.398Z,2.58
2023-07-24T23:56:26.111Z,2.30
2023-07-24T23:59:31.214Z,2.60
